Time;durP1;ratioP1;P1;durP2;ratioP2;P2;SDS_P1;SDS_P2;PMS_P1;PMS_P2;Temp;Humidity;BMP_temperature;BMP_pressure;BME280_temperature;BME280_humidity;BME280_pressure;Samples;Min_cycle;Max_cycle;Signal;HPM_P1;HPM_P2
2022/03/08 00:02:12;;;;;;;;;;;6.00;52.80;;;;;;5114463;28;19944;-85
2022/03/08 00:04:38;;;;;;;;;;;5.80;53.50;;;;;;5114650;28;19994;-86
2022/03/08 00:07:05;;;;;;;;;;;5.70;53.90;;;;;;5115474;27;19947;-86
2022/03/08 00:09:30;;;;;;;;;;;5.60;54.20;;;;;;5114260;28;19907;-85
2022/03/08 00:11:56;;;;;;;;;;;5.60;54.00;;;;;;5114262;28;19915;-86
2022/03/08 00:14:21;;;;;;;;;;;5.70;53.90;;;;;;5101699;27;19911;-86
2022/03/08 00:16:47;;;;;;;;;;;5.60;54.30;;;;;;5134713;27;20013;-86
2022/03/08 00:19:12;;;;;;;;;;;5.60;54.10;;;;;;5129545;27;19912;-86
2022/03/08 00:21:39;;;;;;;;;;;5.60;53.20;;;;;;5134607;27;19918;-86
2022/03/08 00:24:05;;;;;;;;;;;5.70;52.90;;;;;;5131604;27;19919;-86
2022/03/08 00:26:31;;;;;;;;;;;5.60;53.00;;;;;;5114086;28;19908;-86
2022/03/08 00:28:56;;;;;;;;;;;5.50;53.50;;;;;;5113999;28;19908;-86
2022/03/08 00:31:22;;;;;;;;;;;5.40;53.70;;;;;;5119325;27;19912;-86
2022/03/08 00:33:47;;;;;;;;;;;5.30;54.30;;;;;;5134477;27;19912;-86
2022/03/08 00:36:13;;;;;;;;;;;5.20;54.40;;;;;;5115643;27;19912;-86
2022/03/08 00:38:39;;;;;;;;;;;5.30;54.40;;;;;;5113883;28;19912;-86
2022/03/08 00:41:04;;;;;;;;;;;5.30;54.10;;;;;;5114856;28;19961;-86
2022/03/08 00:43:30;;;;;;;;;;;5.30;54.10;;;;;;5113829;28;19948;-86
2022/03/08 00:49:37;;;;;;;;;;;5.40;54.10;;;;;;5129791;27;20380;-86
2022/03/08 00:52:04;;;;;;;;;;;5.30;54.40;;;;;;5090676;28;20014;-86
2022/03/08 00:54:30;;;;;;;;;;;5.30;54.30;;;;;;5090880;28;20311;-86
2022/03/08 00:56:55;;;;;;;;;;;5.30;54.10;;;;;;5103546;28;19908;-86
2022/03/08 00:59:21;;;;;;;;;;;5.30;54.90;;;;;;5110884;28;19938;-86
2022/03/08 01:01:46;;;;;;;;;;;5.30;54.50;;;;;;5110833;28;20468;-86
2022/03/08 01:04:12;;;;;;;;;;;5.30;54.70;;;;;;5110810;28;20378;-86
2022/03/08 01:06:39;;;;;;;;;;;5.40;54.10;;;;;;5126268;28;19947;-86
2022/03/08 01:09:05;;;;;;;;;;;5.40;53.80;;;;;;5138200;27;19916;-86
2022/03/08 01:11:31;;;;;;;;;;;5.40;53.80;;;;;;5151882;27;20417;-86
2022/03/08 01:13:57;;;;;;;;;;;5.40;53.60;;;;;;5151801;27;20430;-86
2022/03/08 01:16:22;;;;;;;;;;;5.40;53.70;;;;;;5150013;27;20316;-86
2022/03/08 01:18:48;;;;;;;;;;;5.40;53.60;;;;;;5151726;27;19912;-86
2022/03/08 01:21:14;;;;;;;;;;;5.40;53.50;;;;;;5139302;27;20352;-86
2022/03/08 01:23:40;;;;;;;;;;;5.40;53.30;;;;;;5130955;28;19912;-86
2022/03/08 01:26:06;;;;;;;;;;;5.40;53.30;;;;;;5143541;27;19912;-86
2022/03/08 01:28:31;;;;;;;;;;;5.40;53.30;;;;;;5151478;27;20384;-85
2022/03/08 01:30:57;;;;;;;;;;;5.40;53.50;;;;;;5151348;27;19911;-85
2022/03/08 01:33:22;;;;;;;;;;;5.30;54.00;;;;;;5136051;27;19961;-85
2022/03/08 01:35:48;;;;;;;;;;;5.20;54.50;;;;;;5137059;27;19912;-85
2022/03/08 01:38:14;;;;;;;;;;;4.90;56.30;;;;;;5151371;27;19907;-85
2022/03/08 01:40:39;;;;;;;;;;;4.60;57.20;;;;;;5151312;27;19931;-86
2022/03/08 01:43:05;;;;;;;;;;;4.50;57.40;;;;;;5151289;27;20281;-86
2022/03/08 01:45:32;;;;;;;;;;;4.40;57.40;;;;;;5151195;27;20276;-86
2022/03/08 01:47:57;;;;;;;;;;;4.50;57.50;;;;;;5140062;27;19930;-86
2022/03/08 01:50:23;;;;;;;;;;;4.60;57.20;;;;;;5130814;27;19908;-86
2022/03/08 01:52:49;;;;;;;;;;;4.70;56.50;;;;;;5151361;27;19914;-86
2022/03/08 01:55:16;;;;;;;;;;;4.70;56.50;;;;;;5151019;27;19908;-86
2022/03/08 01:57:43;;;;;;;;;;;4.90;56.40;;;;;;5142678;27;20003;-86
2022/03/08 02:00:11;;;;;;;;;;;5.00;56.00;;;;;;5121183;28;19908;-86
2022/03/08 02:02:37;;;;;;;;;;;5.00;55.40;;;;;;5106709;27;19911;-86
2022/03/08 02:05:03;;;;;;;;;;;5.10;55.10;;;;;;5136967;27;19907;-86
2022/03/08 02:07:28;;;;;;;;;;;5.20;54.50;;;;;;5134504;27;19926;-86
2022/03/08 02:09:54;;;;;;;;;;;5.20;54.20;;;;;;5136900;27;20360;-85
2022/03/08 02:12:19;;;;;;;;;;;5.10;54.20;;;;;;5132209;27;20348;-85
2022/03/08 02:14:45;;;;;;;;;;;5.00;54.50;;;;;;5116267;28;20291;-85
2022/03/08 02:17:10;;;;;;;;;;;4.90;54.70;;;;;;5128063;27;20362;-85
2022/03/08 02:19:36;;;;;;;;;;;4.90;55.30;;;;;;5136831;27;20302;-86
2022/03/08 02:22:02;;;;;;;;;;;4.80;55.50;;;;;;5126311;27;19912;-86
2022/03/08 02:24:27;;;;;;;;;;;4.80;55.60;;;;;;5116374;28;19960;-85
2022/03/08 02:26:53;;;;;;;;;;;4.80;55.60;;;;;;5122165;27;20394;-86
2022/03/08 02:29:19;;;;;;;;;;;4.90;55.30;;;;;;5118012;27;20461;-86
2022/03/08 02:31:47;;;;;;;;;;;4.90;55.10;;;;;;5097787;28;19908;-86
2022/03/08 02:34:13;;;;;;;;;;;5.00;54.70;;;;;;5115925;28;19914;-86
2022/03/08 02:36:41;;;;;;;;;;;5.10;56.30;;;;;;5122738;27;20329;-86
2022/03/08 02:39:07;;;;;;;;;;;4.90;57.90;;;;;;5136415;27;19911;-86
2022/03/08 02:41:33;;;;;;;;;;;4.70;58.90;;;;;;5117860;27;19914;-86
2022/03/08 02:43:58;;;;;;;;;;;4.50;59.30;;;;;;5132736;27;19911;-86
2022/03/08 02:46:24;;;;;;;;;;;4.40;60.40;;;;;;5115716;28;19912;-85
2022/03/08 02:48:49;;;;;;;;;;;4.30;61.50;;;;;;5115474;28;19926;-86
2022/03/08 02:51:17;;;;;;;;;;;4.10;62.00;;;;;;5118684;27;19918;-86
2022/03/08 02:53:43;;;;;;;;;;;3.90;63.80;;;;;;5136122;27;19907;-85
2022/03/08 02:56:08;;;;;;;;;;;3.70;65.10;;;;;;5136011;27;19907;-85
2022/03/08 02:58:34;;;;;;;;;;;3.70;63.00;;;;;;5136035;27;19911;-85
2022/03/08 03:00:59;;;;;;;;;;;3.80;61.80;;;;;;5134787;27;19946;-86
2022/03/08 03:03:25;;;;;;;;;;;3.90;61.20;;;;;;5115320;28;19955;-85
2022/03/08 03:05:50;;;;;;;;;;;4.00;61.10;;;;;;5115268;28;19915;-86
2022/03/08 03:08:16;;;;;;;;;;;4.10;61.60;;;;;;5117273;27;19923;-86
2022/03/08 03:10:41;;;;;;;;;;;4.30;60.90;;;;;;5114646;28;19904;-86
2022/03/08 03:13:07;;;;;;;;;;;4.30;60.80;;;;;;5132733;27;19922;-86
2022/03/08 03:15:32;;;;;;;;;;;4.40;60.40;;;;;;5135669;27;20392;-86
2022/03/08 03:17:59;;;;;;;;;;;4.40;60.30;;;;;;5135561;27;20272;-86
2022/03/08 03:20:26;;;;;;;;;;;4.60;59.10;;;;;;5135532;27;19907;-86
2022/03/08 03:22:52;;;;;;;;;;;4.70;58.00;;;;;;5122376;27;19912;-86
2022/03/08 03:25:18;;;;;;;;;;;4.80;58.20;;;;;;5114860;28;19918;-86
2022/03/08 03:29:37;;;;;;;;;;;4.80;57.60;;;;;;5111026;27;20427;-86
2022/03/08 03:32:03;;;;;;;;;;;4.60;58.80;;;;;;5111017;28;19999;-86
2022/03/08 03:34:28;;;;;;;;;;;4.40;59.70;;;;;;5110305;28;19915;-86
2022/03/08 03:36:54;;;;;;;;;;;4.30;59.80;;;;;;5108462;28;19937;-86
2022/03/08 03:39:19;;;;;;;;;;;4.40;59.80;;;;;;5090542;28;20427;-85
2022/03/08 03:41:45;;;;;;;;;;;4.30;58.80;;;;;;5090536;28;19966;-85
2022/03/08 03:44:11;;;;;;;;;;;4.20;58.00;;;;;;5090794;28;19912;-86
2022/03/08 03:46:36;;;;;;;;;;;4.20;59.10;;;;;;5101690;28;19908;-85
2022/03/08 03:49:02;;;;;;;;;;;4.30;60.10;;;;;;5110599;28;19916;-85
2022/03/08 03:51:28;;;;;;;;;;;4.20;60.40;;;;;;5110707;28;19963;-86
2022/03/08 03:53:54;;;;;;;;;;;4.20;59.60;;;;;;5108866;28;19943;-86
2022/03/08 03:56:19;;;;;;;;;;;4.20;59.40;;;;;;5110597;28;19919;-86
2022/03/08 03:58:45;;;;;;;;;;;4.20;60.90;;;;;;5098347;28;19908;-86
2022/03/08 04:01:10;;;;;;;;;;;4.20;61.80;;;;;;5090152;28;19912;-86
2022/03/08 04:03:36;;;;;;;;;;;4.00;61.80;;;;;;5090164;28;19909;-86
2022/03/08 04:06:01;;;;;;;;;;;3.90;61.50;;;;;;5090062;28;19908;-86
2022/03/08 04:08:27;;;;;;;;;;;3.80;61.80;;;;;;5098305;28;19920;-86
2022/03/08 04:10:52;;;;;;;;;;;3.70;62.00;;;;;;5089961;28;19913;-86
2022/03/08 04:13:18;;;;;;;;;;;3.70;61.80;;;;;;5089916;28;19919;-86
2022/03/08 04:15:44;;;;;;;;;;;3.60;61.30;;;;;;5089967;28;19958;-85
2022/03/08 04:18:10;;;;;;;;;;;3.50;61.30;;;;;;5098485;28;19915;-85
2022/03/08 04:20:35;;;;;;;;;;;3.50;61.70;;;;;;5110158;28;19912;-86
2022/03/08 04:23:01;;;;;;;;;;;3.60;61.50;;;;;;5104119;28;19915;-85
2022/03/08 04:25:27;;;;;;;;;;;3.60;62.00;;;;;;5090006;28;20002;-85
2022/03/08 04:27:52;;;;;;;;;;;3.50;67.50;;;;;;5095035;28;19959;-85
2022/03/08 04:30:18;;;;;;;;;;;3.30;68.60;;;;;;5109830;28;19919;-86
2022/03/08 04:32:44;;;;;;;;;;;3.30;68.40;;;;;;5109748;28;19947;-86
2022/03/08 04:35:09;;;;;;;;;;;3.20;68.80;;;;;;5109803;28;19908;-86
2022/03/08 04:37:35;;;;;;;;;;;3.20;68.60;;;;;;5106822;28;20011;-86
2022/03/08 04:40:01;;;;;;;;;;;3.20;67.50;;;;;;5081287;28;19909;-86
2022/03/08 04:42:26;;;;;;;;;;;3.30;67.60;;;;;;5075893;28;19908;-86
2022/03/08 04:44:52;;;;;;;;;;;3.30;67.80;;;;;;5079103;28;19934;-86
2022/03/08 04:47:17;;;;;;;;;;;3.40;68.70;;;;;;5096008;28;20497;-86
2022/03/08 04:49:43;;;;;;;;;;;3.50;68.60;;;;;;5096071;28;20017;-86
2022/03/08 04:52:11;;;;;;;;;;;3.40;69.10;;;;;;5095995;28;19908;-86
2022/03/08 04:54:37;;;;;;;;;;;3.40;70.20;;;;;;5095739;28;19909;-86
2022/03/08 04:57:03;;;;;;;;;;;3.40;70.40;;;;;;5094505;28;19934;-85
2022/03/08 04:59:28;;;;;;;;;;;3.20;69.00;;;;;;5084563;28;19916;-85
2022/03/08 05:01:54;;;;;;;;;;;3.00;66.60;;;;;;5075607;28;19955;-85
2022/03/08 05:04:21;;;;;;;;;;;2.90;67.40;;;;;;5075494;28;19909;-85
2022/03/08 05:06:47;;;;;;;;;;;2.80;66.30;;;;;;5075546;28;19955;-86
2022/03/08 05:09:12;;;;;;;;;;;2.70;65.70;;;;;;5080324;28;19939;-85
2022/03/08 05:11:38;;;;;;;;;;;2.70;65.80;;;;;;5095565;28;20297;-85
2022/03/08 05:14:04;;;;;;;;;;;2.80;67.40;;;;;;5095508;28;19957;-86
2022/03/08 05:16:29;;;;;;;;;;;2.80;67.30;;;;;;5095483;28;19908;-86
2022/03/08 05:18:55;;;;;;;;;;;2.90;65.70;;;;;;5092520;28;20323;-86
2022/03/08 05:21:20;;;;;;;;;;;2.80;65.20;;;;;;5075158;28;20344;-86
2022/03/08 05:23:46;;;;;;;;;;;2.80;65.60;;;;;;5084135;28;19912;-86
2022/03/08 05:26:11;;;;;;;;;;;2.80;66.70;;;;;;5093218;28;20370;-86
2022/03/08 05:28:37;;;;;;;;;;;2.90;68.50;;;;;;5089671;28;19920;-85
2022/03/08 05:31:03;;;;;;;;;;;3.00;68.80;;;;;;5074835;28;19908;-86
2022/03/08 05:33:28;;;;;;;;;;;3.10;68.30;;;;;;5074869;28;19916;-86
2022/03/08 05:35:54;;;;;;;;;;;3.10;67.30;;;;;;5080440;28;19919;-86
2022/03/08 05:38:19;;;;;;;;;;;3.20;66.10;;;;;;5093291;28;19912;-85
2022/03/08 05:40:45;;;;;;;;;;;3.00;66.30;;;;;;5095002;28;19908;-85
2022/03/08 05:43:11;;;;;;;;;;;3.10;66.00;;;;;;5095189;28;19951;-85
2022/03/08 05:45:36;;;;;;;;;;;2.90;67.00;;;;;;5091512;28;19916;-86
2022/03/08 05:48:02;;;;;;;;;;;2.90;67.10;;;;;;5074599;28;19928;-85
2022/03/08 05:50:27;;;;;;;;;;;2.80;67.80;;;;;;5074337;28;19909;-85
2022/03/08 05:52:53;;;;;;;;;;;2.90;66.00;;;;;;5077540;28;19912;-85
2022/03/08 05:55:18;;;;;;;;;;;2.90;66.20;;;;;;5089758;28;19973;-85
2022/03/08 05:57:44;;;;;;;;;;;2.90;67.90;;;;;;5075601;28;20334;-85
2022/03/08 06:00:10;;;;;;;;;;;2.80;69.30;;;;;;5089420;28;19912;-85
2022/03/08 06:02:35;;;;;;;;;;;2.80;66.60;;;;;;5085206;28;20015;-85
2022/03/08 06:05:01;;;;;;;;;;;2.90;67.10;;;;;;5077036;28;19958;-85
2022/03/08 06:07:27;;;;;;;;;;;2.90;68.50;;;;;;5092792;28;19963;-85
2022/03/08 06:09:52;;;;;;;;;;;2.90;69.60;;;;;;5086487;28;19919;-86
2022/03/08 06:12:18;;;;;;;;;;;2.80;70.50;;;;;;5078371;28;19924;-85
2022/03/08 06:14:43;;;;;;;;;;;2.90;69.50;;;;;;5090601;28;19917;-85
2022/03/08 06:17:09;;;;;;;;;;;3.00;68.00;;;;;;5091650;28;19926;-86
2022/03/08 06:19:35;;;;;;;;;;;3.10;68.20;;;;;;5090055;28;20310;-86
2022/03/08 06:22:00;;;;;;;;;;;3.30;68.10;;;;;;5090470;28;19912;-86
2022/03/08 06:24:26;;;;;;;;;;;3.40;69.20;;;;;;5087079;28;19912;-85
2022/03/08 06:26:51;;;;;;;;;;;3.30;67.20;;;;;;5086922;28;19916;-85
2022/03/08 06:29:17;;;;;;;;;;;3.40;65.90;;;;;;5092614;28;20400;-86
2022/03/08 06:31:43;;;;;;;;;;;3.30;66.00;;;;;;5080123;28;19922;-86
2022/03/08 06:34:08;;;;;;;;;;;3.20;67.70;;;;;;5093628;28;20011;-85
2022/03/08 06:36:34;;;;;;;;;;;3.10;70.60;;;;;;5092142;28;20209;-85
2022/03/08 06:39:00;;;;;;;;;;;2.90;70.00;;;;;;5087274;28;19912;-85
2022/03/08 06:41:26;;;;;;;;;;;3.00;67.60;;;;;;5085032;28;19916;-85
2022/03/08 06:43:51;;;;;;;;;;;2.90;66.80;;;;;;5073762;28;19908;-85
2022/03/08 06:46:17;;;;;;;;;;;2.90;66.20;;;;;;5087983;28;19919;-85
2022/03/08 06:48:43;;;;;;;;;;;2.90;65.10;;;;;;5080864;28;19924;-85
2022/03/08 06:51:08;;;;;;;;;;;2.90;65.10;;;;;;5089028;28;19945;-85
2022/03/08 06:53:34;;;;;;;;;;;3.00;65.00;;;;;;5090597;28;19954;-85
2022/03/08 06:55:59;;;;;;;;;;;3.10;64.50;;;;;;5079992;28;19918;-85
2022/03/08 06:58:26;;;;;;;;;;;3.30;62.90;;;;;;5087337;28;19959;-86
2022/03/08 07:00:52;;;;;;;;;;;3.50;63.00;;;;;;5086644;28;19920;-86
2022/03/08 07:03:17;;;;;;;;;;;3.80;63.30;;;;;;5092512;28;19920;-86
2022/03/08 07:05:43;;;;;;;;;;;4.00;67.00;;;;;;5087652;28;20370;-86
2022/03/08 07:10:29;;;;;;;;;;;3.90;64.30;;;;;;5103846;27;19938;-85
2022/03/08 07:12:55;;;;;;;;;;;3.80;63.50;;;;;;5086332;28;19950;-86
2022/03/08 07:15:21;;;;;;;;;;;4.00;64.40;;;;;;5088218;28;19935;-86
2022/03/08 07:17:47;;;;;;;;;;;4.10;64.50;;;;;;5084260;28;20186;-86
2022/03/08 07:20:13;;;;;;;;;;;4.30;64.40;;;;;;5082355;28;19931;-85
2022/03/08 07:22:39;;;;;;;;;;;4.40;62.10;;;;;;5083209;28;19912;-86
2022/03/08 07:25:04;;;;;;;;;;;4.50;60.90;;;;;;5083934;28;20320;-86
2022/03/08 07:27:30;;;;;;;;;;;4.70;62.00;;;;;;5081578;28;19960;-85
2022/03/08 07:32:01;;;;;;;;;;;4.90;62.30;;;;;;5086824;27;19927;-85
2022/03/08 07:34:26;;;;;;;;;;;5.30;61.80;;;;;;5087810;28;19912;-86
2022/03/08 07:36:52;;;;;;;;;;;5.50;60.70;;;;;;5087351;28;20363;-86
2022/03/08 07:39:17;;;;;;;;;;;5.70;59.70;;;;;;5087294;28;19947;-86
2022/03/08 07:41:43;;;;;;;;;;;6.00;58.20;;;;;;5083747;28;20377;-86
2022/03/08 07:44:08;;;;;;;;;;;6.20;55.70;;;;;;5084146;28;19912;-86
2022/03/08 07:46:34;;;;;;;;;;;6.40;53.80;;;;;;5089308;28;20389;-85
2022/03/08 07:49:00;;;;;;;;;;;6.60;53.40;;;;;;5082588;28;20378;-86
2022/03/08 07:51:26;;;;;;;;;;;6.70;52.30;;;;;;5079702;28;19926;-86
2022/03/08 07:53:52;;;;;;;;;;;6.60;51.30;;;;;;5091323;28;19916;-86
2022/03/08 07:56:17;;;;;;;;;;;6.70;50.20;;;;;;5087250;28;19938;-86
2022/03/08 07:58:43;;;;;;;;;;;6.70;47.80;;;;;;5087096;28;20587;-86
2022/03/08 08:01:08;;;;;;;;;;;6.80;49.40;;;;;;5080601;28;19912;-86
2022/03/08 08:03:34;;;;;;;;;;;6.90;46.90;;;;;;5087067;28;20027;-86
2022/03/08 08:06:02;;;;;;;;;;;6.90;43.30;;;;;;5080302;28;20010;-86
2022/03/08 08:08:27;;;;;;;;;;;6.90;44.90;;;;;;5089730;28;20158;-86
2022/03/08 08:10:53;;;;;;;;;;;6.90;42.80;;;;;;5085104;28;20445;-86
2022/03/08 08:13:18;;;;;;;;;;;7.00;45.10;;;;;;5081881;28;20405;-86
2022/03/08 08:15:44;;;;;;;;;;;7.20;41.90;;;;;;5088187;28;19920;-85
2022/03/08 08:18:09;;;;;;;;;;;7.30;40.40;;;;;;5077989;28;19955;-85
2022/03/08 08:20:35;;;;;;;;;;;7.40;40.10;;;;;;5080389;28;20482;-86
2022/03/08 08:23:00;;;;;;;;;;;7.60;42.80;;;;;;5078883;28;19916;-85
2022/03/08 08:25:26;;;;;;;;;;;7.70;39.90;;;;;;5081030;28;21394;-86
2022/03/08 08:27:51;;;;;;;;;;;7.80;40.40;;;;;;5078887;28;19920;-86
2022/03/08 08:30:18;;;;;;;;;;;7.70;43.30;;;;;;5083898;28;19920;-86
2022/03/08 08:32:44;;;;;;;;;;;7.60;37.00;;;;;;5081008;28;20009;-86
2022/03/08 08:35:09;;;;;;;;;;;7.50;38.30;;;;;;5086552;28;20421;-86
2022/03/08 08:37:35;;;;;;;;;;;7.50;38.30;;;;;;5081584;28;20039;-86
2022/03/08 08:40:01;;;;;;;;;;;7.30;38.00;;;;;;5094749;28;19917;-85
2022/03/08 08:42:27;;;;;;;;;;;7.30;42.30;;;;;;5070780;28;20405;-86
2022/03/08 08:44:52;;;;;;;;;;;7.40;41.70;;;;;;5066097;28;19920;-86
2022/03/08 08:47:18;;;;;;;;;;;7.40;41.00;;;;;;5067161;28;19912;-85
2022/03/08 08:49:43;;;;;;;;;;;7.30;41.00;;;;;;5077711;28;19913;-86
2022/03/08 08:52:09;;;;;;;;;;;7.40;38.90;;;;;;5077943;28;19912;-86
2022/03/08 08:54:34;;;;;;;;;;;7.40;38.10;;;;;;5063957;28;19913;-86
2022/03/08 08:57:00;;;;;;;;;;;7.40;37.80;;;;;;5067367;28;19920;-86
2022/03/08 08:59:25;;;;;;;;;;;7.50;39.00;;;;;;5069858;28;19931;-87
2022/03/08 09:01:51;;;;;;;;;;;7.50;38.00;;;;;;5069885;28;20386;-86
2022/03/08 09:04:17;;;;;;;;;;;7.60;38.10;;;;;;5066021;28;20294;-86
2022/03/08 09:06:42;;;;;;;;;;;7.80;37.50;;;;;;5071267;28;19913;-86
2022/03/08 09:09:09;;;;;;;;;;;7.80;36.50;;;;;;5066885;28;19966;-86
2022/03/08 09:11:35;;;;;;;;;;;7.70;37.50;;;;;;5075195;28;19952;-86
2022/03/08 09:14:02;;;;;;;;;;;7.70;37.90;;;;;;5067662;28;20012;-86
2022/03/08 09:16:28;;;;;;;;;;;7.50;38.90;;;;;;5068976;28;21465;-86
2022/03/08 09:18:53;;;;;;;;;;;7.40;39.10;;;;;;5063744;28;20166;-85
2022/03/08 09:21:19;;;;;;;;;;;7.50;37.40;;;;;;5064623;28;19931;-86
2022/03/08 09:23:44;;;;;;;;;;;7.40;36.90;;;;;;5069090;28;20380;-86
2022/03/08 09:26:10;;;;;;;;;;;7.40;37.00;;;;;;5066974;28;20394;-85
2022/03/08 09:28:36;;;;;;;;;;;7.50;38.30;;;;;;5065492;28;20330;-86
2022/03/08 09:31:01;;;;;;;;;;;7.60;38.20;;;;;;5069269;28;19973;-86
2022/03/08 09:33:27;;;;;;;;;;;7.70;36.90;;;;;;5070086;28;19919;-86
2022/03/08 09:35:52;;;;;;;;;;;7.80;37.50;;;;;;5069894;28;19920;-85
2022/03/08 09:38:18;;;;;;;;;;;7.90;37.70;;;;;;5072043;28;19943;-86
2022/03/08 09:40:44;;;;;;;;;;;8.00;36.30;;;;;;5067184;28;19958;-86
2022/03/08 09:43:10;;;;;;;;;;;8.10;36.10;;;;;;5067589;28;20007;-86
2022/03/08 09:45:35;;;;;;;;;;;8.10;35.60;;;;;;5072930;28;19913;-85
2022/03/08 09:48:01;;;;;;;;;;;8.00;37.10;;;;;;5069356;28;19921;-86
2022/03/08 09:50:29;;;;;;;;;;;8.10;39.00;;;;;;5069602;28;19923;-85
2022/03/08 09:52:56;;;;;;;;;;;7.90;37.80;;;;;;5070261;28;19924;-85
2022/03/08 09:55:23;;;;;;;;;;;7.90;39.60;;;;;;5072458;28;20382;-86
2022/03/08 09:57:49;;;;;;;;;;;8.00;40.00;;;;;;5073241;28;20366;-86
2022/03/08 10:00:14;;;;;;;;;;;7.90;41.20;;;;;;5076063;28;19948;-85
2022/03/08 10:02:50;;;;;;;;;;;8.10;38.70;;;;;;5076014;28;19956;-86
2022/03/08 10:05:16;;;;;;;;;;;8.30;39.40;;;;;;5071188;28;19912;-86
2022/03/08 10:08:22;;;;;;;;;;;8.10;38.90;;;;;;5075052;28;19940;-85
2022/03/08 10:10:52;;;;;;;;;;;8.10;37.40;;;;;;5008708;28;19976;-86
2022/03/08 10:13:19;;;;;;;;;;;8.20;39.60;;;;;;5062806;28;20301;-86
2022/03/08 10:15:45;;;;;;;;;;;8.20;38.50;;;;;;5073835;28;19916;-86
2022/03/08 10:18:11;;;;;;;;;;;8.10;37.30;;;;;;5064684;28;19943;-86
2022/03/08 10:20:36;;;;;;;;;;;8.10;37.20;;;;;;5084958;28;20330;-85
2022/03/08 10:23:08;;;;;;;;;;;8.30;36.80;;;;;;5067948;28;20484;-86
2022/03/08 10:25:33;;;;;;;;;;;8.40;37.10;;;;;;5067669;28;19946;-86
2022/03/08 10:28:01;;;;;;;;;;;8.40;38.30;;;;;;5072944;28;19952;-86
2022/03/08 10:30:29;;;;;;;;;;;8.40;38.00;;;;;;5063873;28;20488;-85
2022/03/08 10:32:56;;;;;;;;;;;8.50;41.00;;;;;;5069409;28;19973;-85
2022/03/08 10:35:27;;;;;;;;;;;8.50;37.00;;;;;;5074801;28;19923;-85
2022/03/08 10:37:55;;;;;;;;;;;8.20;37.70;;;;;;5069032;28;19913;-86
2022/03/08 10:40:32;;;;;;;;;;;8.20;36.30;;;;;;5069347;28;19916;-86
2022/03/08 10:43:02;;;;;;;;;;;8.30;38.60;;;;;;5066172;28;19952;-85
2022/03/08 10:45:29;;;;;;;;;;;8.40;38.00;;;;;;5061483;28;19920;-86
2022/03/08 10:47:54;;;;;;;;;;;8.50;39.20;;;;;;5062762;28;19912;-86
2022/03/08 10:50:23;;;;;;;;;;;8.60;36.70;;;;;;5063770;28;20278;-86
2022/03/08 10:52:50;;;;;;;;;;;8.60;36.10;;;;;;5074058;28;19916;-86
2022/03/08 10:55:17;;;;;;;;;;;8.70;37.60;;;;;;5080019;28;20373;-86
2022/03/08 10:57:50;;;;;;;;;;;8.80;37.30;;;;;;5065583;28;20416;-86
2022/03/08 11:00:16;;;;;;;;;;;8.90;38.70;;;;;;5089954;28;19912;-86
2022/03/08 11:02:49;;;;;;;;;;;8.80;36.30;;;;;;5071612;28;19916;-86
2022/03/08 11:05:15;;;;;;;;;;;8.90;36.10;;;;;;5063758;28;19971;-86
2022/03/08 11:07:41;;;;;;;;;;;9.10;38.60;;;;;;5071028;28;19916;-86
2022/03/08 11:10:08;;;;;;;;;;;9.10;35.60;;;;;;5068121;28;19916;-85
2022/03/08 11:12:34;;;;;;;;;;;9.10;37.80;;;;;;5069343;28;20038;-86
2022/03/08 11:15:00;;;;;;;;;;;8.80;35.50;;;;;;5067868;28;20736;-86
2022/03/08 11:17:25;;;;;;;;;;;9.10;36.30;;;;;;5070875;28;19931;-86
2022/03/08 11:19:51;;;;;;;;;;;9.20;34.70;;;;;;5072817;28;19917;-86
2022/03/08 11:22:18;;;;;;;;;;;9.10;35.60;;;;;;5054500;28;19909;-86
2022/03/08 11:24:44;;;;;;;;;;;9.40;34.50;;;;;;5066448;28;19920;-86
2022/03/08 11:27:10;;;;;;;;;;;9.60;33.50;;;;;;5073027;28;19914;-86
2022/03/08 11:29:36;;;;;;;;;;;9.60;34.70;;;;;;5071238;28;20370;-86
2022/03/08 11:32:04;;;;;;;;;;;9.60;34.10;;;;;;5072732;28;19932;-86
2022/03/08 11:34:36;;;;;;;;;;;9.70;34.30;;;;;;5058263;28;19927;-86
2022/03/08 11:37:03;;;;;;;;;;;9.90;34.40;;;;;;5052903;28;19952;-86
2022/03/08 11:39:29;;;;;;;;;;;9.90;32.50;;;;;;5052931;28;19916;-86
2022/03/08 11:42:18;;;;;;;;;;;10.10;34.00;;;;;;5053984;28;19920;-86
2022/03/08 11:44:56;;;;;;;;;;;9.70;36.80;;;;;;5063594;28;20441;-86
2022/03/08 11:47:21;;;;;;;;;;;9.50;35.90;;;;;;5071048;28;19943;-86
2022/03/08 11:49:51;;;;;;;;;;;9.40;36.10;;;;;;5072212;28;19917;-86
2022/03/08 11:52:19;;;;;;;;;;;9.50;33.40;;;;;;5069332;28;19920;-86
2022/03/08 11:55:06;;;;;;;;;;;9.70;33.70;;;;;;5072742;28;19909;-86
2022/03/08 11:57:47;;;;;;;;;;;10.10;34.90;;;;;;5072310;28;20007;-86
2022/03/08 12:00:23;;;;;;;;;;;10.20;35.60;;;;;;5057411;28;19919;-86
2022/03/08 12:02:51;;;;;;;;;;;10.30;33.30;;;;;;5071999;28;19912;-86
2022/03/08 12:05:35;;;;;;;;;;;10.60;32.50;;;;;;5072443;28;20003;-85
2022/03/08 12:08:19;;;;;;;;;;;10.50;33.10;;;;;;5071450;28;20171;-86
2022/03/08 12:10:47;;;;;;;;;;;10.80;32.40;;;;;;5061879;28;19920;-86
2022/03/08 12:13:15;;;;;;;;;;;11.40;34.70;;;;;;5071217;28;19912;-86
2022/03/08 12:16:00;;;;;;;;;;;10.90;32.90;;;;;;5060246;28;19916;-86
2022/03/08 12:18:37;;;;;;;;;;;10.60;32.90;;;;;;5074284;28;19995;-85
2022/03/08 12:21:14;;;;;;;;;;;10.50;32.20;;;;;;5075944;28;19912;-86
2022/03/08 12:23:55;;;;;;;;;;;10.90;31.80;;;;;;5075151;28;19951;-85
2022/03/08 12:26:37;;;;;;;;;;;10.90;32.30;;;;;;5074876;28;19919;-86
2022/03/08 12:29:02;;;;;;;;;;;11.60;30.90;;;;;;5071212;28;19936;-87
2022/03/08 12:31:28;;;;;;;;;;;12.80;28.80;;;;;;5072863;28;19935;-86
2022/03/08 12:34:06;;;;;;;;;;;12.90;30.20;;;;;;5077747;28;19963;-86
2022/03/08 12:36:35;;;;;;;;;;;12.40;29.80;;;;;;5067149;28;19917;-86
2022/03/08 12:39:01;;;;;;;;;;;12.40;30.60;;;;;;5069773;28;20023;-86
2022/03/08 12:41:27;;;;;;;;;;;13.40;29.60;;;;;;5072969;28;19919;-87
2022/03/08 12:43:59;;;;;;;;;;;14.30;29.70;;;;;;5071789;28;19956;-87
2022/03/08 12:46:25;;;;;;;;;;;14.80;26.40;;;;;;5069469;28;19913;-87
2022/03/08 12:48:52;;;;;;;;;;;15.00;26.50;;;;;;5073397;28;19971;-87
2022/03/08 12:51:20;;;;;;;;;;;14.90;27.90;;;;;;5070278;28;20496;-86
2022/03/08 12:53:49;;;;;;;;;;;14.90;28.30;;;;;;5068514;28;20031;-86
2022/03/08 12:56:17;;;;;;;;;;;15.10;26.40;;;;;;5061355;28;19913;-86
2022/03/08 12:58:43;;;;;;;;;;;14.60;26.90;;;;;;5063542;28;19919;-86
2022/03/08 13:01:12;;;;;;;;;;;14.70;26.90;;;;;;5081983;28;19912;-86
2022/03/08 13:03:42;;;;;;;;;;;15.10;26.70;;;;;;5071168;28;19959;-86
2022/03/08 13:06:08;;;;;;;;;;;14.30;28.50;;;;;;5067500;28;19963;-86
2022/03/08 13:08:35;;;;;;;;;;;14.50;27.60;;;;;;5069332;28;19912;-86
2022/03/08 13:11:01;;;;;;;;;;;14.00;27.10;;;;;;5065632;28;19921;-86
2022/03/08 13:13:27;;;;;;;;;;;14.30;28.10;;;;;;5059879;28;19963;-86
2022/03/08 13:15:52;;;;;;;;;;;14.40;27.60;;;;;;5070089;28;19963;-86
2022/03/08 13:18:22;;;;;;;;;;;14.90;28.20;;;;;;5069276;28;19913;-86
2022/03/08 13:20:52;;;;;;;;;;;15.40;27.20;;;;;;5070047;28;19964;-87
2022/03/08 13:23:23;;;;;;;;;;;16.70;24.80;;;;;;5067290;28;19973;-87
2022/03/08 13:25:51;;;;;;;;;;;17.50;23.80;;;;;;5063156;28;19916;-86
2022/03/08 13:28:17;;;;;;;;;;;17.50;24.50;;;;;;5063994;28;19913;-86
2022/03/08 13:30:47;;;;;;;;;;;15.80;25.10;;;;;;5065836;28;19920;-86
2022/03/08 13:33:13;;;;;;;;;;;15.30;26.50;;;;;;5070567;28;20003;-85
2022/03/08 13:35:40;;;;;;;;;;;14.90;28.60;;;;;;5070802;28;19999;-86
2022/03/08 13:38:08;;;;;;;;;;;15.30;26.60;;;;;;5062805;28;19924;-86
2022/03/08 13:40:34;;;;;;;;;;;14.90;26.80;;;;;;5064247;28;19913;-86
2022/03/08 13:43:00;;;;;;;;;;;15.00;26.50;;;;;;5064590;28;20281;-86
2022/03/08 13:45:26;;;;;;;;;;;16.00;26.00;;;;;;5065907;28;19973;-87
2022/03/08 13:47:54;;;;;;;;;;;16.70;24.50;;;;;;5077421;28;19916;-86
2022/03/08 13:50:21;;;;;;;;;;;16.60;25.20;;;;;;5070786;28;19931;-87
2022/03/08 13:52:50;;;;;;;;;;;16.80;24.20;;;;;;5064401;28;19912;-87
2022/03/08 13:55:16;;;;;;;;;;;17.40;23.60;;;;;;5066604;28;19920;-86
2022/03/08 13:57:59;;;;;;;;;;;17.60;23.70;;;;;;5060812;28;20267;-86
2022/03/08 14:00:28;;;;;;;;;;;17.00;24.30;;;;;;5068386;28;19919;-86
2022/03/08 14:02:55;;;;;;;;;;;16.20;24.50;;;;;;5066613;28;19942;-86
2022/03/08 14:05:21;;;;;;;;;;;15.80;26.30;;;;;;5069612;28;20061;-86
2022/03/08 14:07:57;;;;;;;;;;;15.80;25.80;;;;;;5072213;28;20011;-86
2022/03/08 14:10:24;;;;;;;;;;;15.80;25.40;;;;;;5069469;28;19969;-86
2022/03/08 14:12:51;;;;;;;;;;;15.60;27.50;;;;;;5064353;28;19935;-86
2022/03/08 14:15:17;;;;;;;;;;;15.10;26.30;;;;;;5064300;28;19981;-85
2022/03/08 14:17:47;;;;;;;;;;;14.80;26.50;;;;;;5069084;28;20147;-86
2022/03/08 14:20:16;;;;;;;;;;;14.80;27.40;;;;;;5073313;28;19916;-85
2022/03/08 14:23:00;;;;;;;;;;;14.30;27.40;;;;;;5073718;28;19916;-86
2022/03/08 14:25:26;;;;;;;;;;;14.80;26.30;;;;;;5066349;28;19925;-86
2022/03/08 14:27:52;;;;;;;;;;;15.30;27.20;;;;;;5064474;28;19962;-86
2022/03/08 14:30:24;;;;;;;;;;;15.40;25.50;;;;;;5069551;28;19971;-86
2022/03/08 14:32:50;;;;;;;;;;;15.90;26.60;;;;;;5074183;28;20294;-86
2022/03/08 14:35:20;;;;;;;;;;;16.10;25.90;;;;;;5076463;28;19957;-86
2022/03/08 14:37:46;;;;;;;;;;;15.40;25.90;;;;;;5066718;28;19913;-86